Aérodrome :
LOGIN :

S'inscrire | Disclaimer

   EN    FR    IT 

 










Légende :    VFR   VFR Marginal   IFR   IFR Intensif   IFR Très Intensif
Visi : 
Plafond : 
>= 8 km
>= 3000ft
5 à 8 km
1000 à 3000 ft
1500m à 5 km
500 à 1000 ft
800 à 1500m
200 à 500 ft
< 800m
< 200 ft
Symboles :   Orages  Brouillard  Fortes neiges  Fortes précipitations  Vent > 20 kt
SIGMETs :   Divers  Orages  Givrage  Turbulence  Onde Orograph.  Cendres Volcan.






- Altitude de l'aérodrome : 1058 ft
- Code IATA : SCN


EDDR - Saarbrücken

DERNIER METAR :
  • 260820Z 06006KT 0200 R09/0650N FZFG BKN001 M01/M01 Q1022 BECMG 3500 BR BKN005

METARs EXPIRÉS :
  • 260750Z 06004KT 0200 R09/0550N FZFG BKN001 M01/M01 Q1022 NOSIG
  • 260720Z 06004KT 0200 R09/0700N FZFG BKN001 M01/M02 Q1022 NOSIG
  • 260650Z 07005KT 0200 R09/1100N FZFG BKN001 M02/M02 Q1022 NOSIG
  • 260620Z 07005KT 0200 R09/1000U FZFG BKN001 M02/M02 Q1021 NOSIG
  • 260550Z 06004KT 0300 R09/1100N FZFG BKN001 M02/M02 Q1021 NOSIG

TAF AMD TAF EDDR
Valide du 26 à 07h jusqu'au 27 à 06h UTC


260737Z 2607/2706 08004KT 0200 FZFG OVC001
BECMG 2608/2610 2500 BCFG BKN003
BECMG 2610/2612 6000 FEW005
TEMPO 2622/2706 2500 BCFG



MET'MAP, la Météo Aéronautique d'un coup d'oeil ! - Copyright ORBIFLY Décembre 2007 - Disclaimer

ORBIFLY MET'MAP TEAM :

Programmation & Développement : Alexandra Zaïnal
Sur une idée originale de : Baudouin d'Aumeries
Assistance à la programmation : Marc-Olivier Méhu
Soutien technique & logistique : Manuel Goepfert

Contact : metmap@orbifly.com




SOURCES & CREDITS :

   NOAA